createdAt,value
2019-01-28T00:00:36.884Z,39.10
2019-01-28T00:03:08.848Z,40.67
2019-01-28T00:05:38.600Z,41.40
2019-01-28T00:08:08.410Z,43.63
2019-01-28T00:10:38.185Z,42.50
2019-01-28T00:13:08.017Z,45.90
2019-01-28T00:15:37.914Z,47.40
2019-01-28T00:18:07.630Z,45.20
2019-01-28T00:20:37.325Z,42.83
2019-01-28T00:23:07.183Z,44.50
2019-01-28T00:25:36.988Z,40.67
2019-01-28T00:28:06.676Z,40.23
2019-01-28T00:30:36.072Z,42.97
2019-01-28T00:33:05.961Z,44.13
2019-01-28T00:35:35.714Z,42.67
2019-01-28T00:38:05.418Z,40.87
2019-01-28T00:40:34.822Z,43.57
2019-01-28T00:43:04.649Z,43.27
2019-01-28T00:45:34.456Z,44.03
2019-01-28T00:48:04.267Z,42.53
2019-01-28T00:50:34.063Z,41.93
2019-01-28T00:53:03.672Z,43.93
2019-01-28T00:55:33.332Z,43.83
2019-01-28T00:58:03.223Z,44.73
2019-01-28T01:00:33.620Z,47.70
2019-01-28T01:03:03.018Z,49.40
2019-01-28T01:05:32.516Z,50.60
2019-01-28T01:08:02.312Z,48.60
2019-01-28T01:10:32.151Z,54.80
2019-01-28T01:13:01.877Z,48.07
2019-01-28T01:15:31.266Z,46.93
2019-01-28T01:18:00.762Z,48.50
2019-01-28T01:20:30.407Z,47.10
2019-01-28T01:22:59.981Z,43.27
2019-01-28T01:25:29.688Z,41.87
2019-01-28T01:27:59.434Z,43.00
2019-01-28T01:30:29.111Z,47.10
2019-01-28T01:32:59.087Z,50.30
2019-01-28T01:35:28.832Z,48.87
2019-01-28T01:37:58.748Z,45.60
2019-01-28T01:40:28.529Z,46.73
2019-01-28T01:42:58.212Z,45.03
2019-01-28T01:45:28.073Z,41.00
2019-01-28T01:47:57.893Z,41.60
2019-01-28T01:50:27.564Z,39.80
2019-01-28T01:52:57.324Z,42.33
2019-01-28T01:55:26.845Z,44.20
2019-01-28T01:57:56.611Z,42.93
2019-01-28T02:00:26.327Z,38.40
2019-01-28T02:02:56.219Z,41.37
2019-01-28T02:05:25.736Z,39.27
2019-01-28T02:07:55.153Z,44.10
2019-01-28T02:10:24.856Z,39.57
2019-01-28T02:12:54.559Z,39.67
2019-01-28T02:15:24.285Z,43.43
2019-01-28T02:17:54.124Z,42.10
2019-01-28T02:20:23.639Z,40.23
2019-01-28T02:22:53.204Z,43.43
2019-01-28T02:25:22.597Z,40.47
2019-01-28T02:27:52.344Z,40.50
2019-01-28T02:30:21.927Z,43.90
2019-01-28T02:32:51.343Z,48.47
2019-01-28T02:35:20.748Z,46.70
2019-01-28T02:37:50.376Z,44.97
2019-01-28T02:40:20.255Z,46.70
2019-01-28T02:42:50.007Z,45.60
2019-01-28T02:45:19.776Z,45.60
2019-01-28T02:47:49.395Z,47.23
2019-01-28T02:50:19.496Z,46.33
2019-01-28T02:52:49.376Z,45.47
2019-01-28T02:55:19.698Z,43.40
2019-01-28T02:57:49.242Z,47.23
2019-01-28T03:00:20.806Z,42.40
2019-01-28T03:02:50.411Z,39.40
2019-01-28T03:05:20.716Z,42.03
2019-01-28T03:07:50.330Z,42.73
2019-01-28T03:10:21.811Z,42.43
2019-01-28T03:12:51.756Z,40.83
2019-01-28T03:15:21.547Z,37.63
2019-01-28T03:17:51.108Z,40.40
2019-01-28T03:20:21.190Z,34.80
2019-01-28T03:22:51.040Z,41.63
2019-01-28T03:25:21.120Z,43.47
2019-01-28T03:27:50.516Z,39.47
2019-01-28T03:30:21.303Z,44.50
2019-01-28T03:32:50.786Z,72.73
2019-01-28T03:35:20.584Z,144.83
2019-01-28T03:37:50.410Z,120.87
2019-01-28T03:40:21.334Z,113.23
2019-01-28T03:42:51.438Z,44.70
2019-01-28T03:45:22.340Z,48.97
2019-01-28T03:47:52.010Z,50.97
2019-01-28T03:50:21.627Z,64.50
2019-01-28T03:52:51.523Z,77.43
2019-01-28T03:55:21.033Z,57.80
2019-01-28T03:57:50.479Z,80.13
2019-01-28T04:00:22.304Z,55.80
2019-01-28T04:02:52.052Z,49.80
2019-01-28T04:05:22.395Z,61.20
2019-01-28T04:07:52.044Z,67.33
2019-01-28T04:10:23.554Z,79.27
2019-01-28T04:12:53.096Z,55.23
2019-01-28T04:15:23.987Z,45.03
2019-01-28T04:17:53.863Z,46.37
2019-01-28T04:20:25.237Z,49.80
2019-01-28T04:22:55.195Z,44.93
2019-01-28T04:25:24.726Z,58.23
2019-01-28T04:27:54.458Z,47.37
2019-01-28T04:30:25.332Z,65.23
2019-01-28T04:32:54.811Z,58.87
2019-01-28T04:35:24.510Z,53.13
2019-01-28T04:37:54.118Z,61.30
2019-01-28T04:40:23.594Z,85.23
2019-01-28T04:42:53.311Z,71.60
2019-01-28T04:45:22.699Z,69.03
2019-01-28T04:47:52.511Z,97.40
2019-01-28T04:50:22.433Z,118.13
2019-01-28T04:52:51.976Z,73.63
2019-01-28T04:55:21.782Z,80.77
2019-01-28T04:57:51.344Z,83.13
2019-01-28T05:00:22.700Z,67.40
2019-01-28T05:02:52.200Z,44.23
2019-01-28T05:05:22.098Z,38.40
2019-01-28T05:07:51.601Z,52.20
2019-01-28T05:10:21.628Z,81.83
2019-01-28T05:12:51.460Z,51.30
2019-01-28T05:15:21.457Z,45.37
2019-01-28T05:17:51.281Z,41.27
2019-01-28T05:20:21.793Z,74.73
2019-01-28T05:22:51.502Z,52.10
2019-01-28T05:25:21.331Z,58.00
2019-01-28T05:27:53.153Z,68.00
2019-01-28T05:30:24.254Z,73.10
2019-01-28T05:32:54.235Z,70.30
2019-01-28T05:35:24.001Z,79.30
2019-01-28T05:37:54.050Z,79.03
2019-01-28T05:40:24.834Z,66.93
2019-01-28T05:42:54.712Z,54.13
2019-01-28T05:45:25.725Z,203.50
2019-01-28T05:47:55.280Z,95.70
2019-01-28T05:50:24.904Z,99.60
2019-01-28T05:52:54.299Z,64.13
2019-01-28T05:55:23.803Z,62.57
2019-01-28T05:57:53.751Z,53.20
2019-01-28T06:00:31.130Z,49.43
2019-01-28T06:03:00.793Z,52.10
2019-01-28T06:05:30.391Z,48.90
2019-01-28T06:08:00.159Z,54.97
2019-01-28T06:10:30.021Z,62.70
2019-01-28T06:12:59.718Z,58.73
2019-01-28T06:15:29.338Z,48.63
2019-01-28T06:17:58.927Z,52.63
2019-01-28T06:20:28.860Z,62.83
2019-01-28T06:22:58.346Z,75.13
2019-01-28T06:25:28.077Z,76.00
2019-01-28T06:27:57.706Z,68.13
2019-01-28T06:30:29.086Z,67.70
2019-01-28T06:32:58.486Z,85.17
2019-01-28T06:35:27.891Z,84.37
2019-01-28T06:37:57.810Z,79.80
2019-01-28T06:40:30.112Z,95.40
2019-01-28T06:42:59.815Z,111.30
2019-01-28T06:45:29.434Z,94.47
2019-01-28T06:47:59.333Z,101.00
2019-01-28T06:50:29.093Z,89.70
2019-01-28T06:52:58.979Z,75.83
2019-01-28T06:55:28.765Z,49.83
2019-01-28T06:57:58.348Z,42.80
2019-01-28T07:00:46.218Z,48.93
2019-01-28T07:03:16.090Z,96.23
2019-01-28T07:05:45.930Z,98.70
2019-01-28T07:08:15.756Z,94.93
2019-01-28T07:10:45.331Z,75.27
2019-01-28T07:13:15.187Z,61.47
2019-01-28T07:15:44.984Z,51.57
2019-01-28T07:32:28.534Z,72.00
2019-01-28T07:34:58.162Z,49.33
2019-01-28T07:37:27.871Z,57.17
2019-01-28T07:39:57.473Z,47.20
2019-01-28T07:42:27.204Z,53.27
2019-01-28T07:44:56.691Z,49.90
2019-01-28T07:47:26.586Z,41.83
2019-01-28T07:49:56.023Z,42.20
2019-01-28T07:52:25.443Z,39.67
2019-01-28T07:54:55.204Z,41.97
2019-01-28T07:57:25.001Z,57.40
2019-01-28T07:59:54.407Z,134.03
2019-01-28T08:02:24.205Z,119.23
2019-01-28T08:04:53.945Z,141.33
2019-01-28T08:07:23.564Z,210.10
2019-01-28T08:09:53.139Z,151.20
2019-01-28T08:12:23.007Z,214.97
2019-01-28T08:14:52.748Z,166.10
2019-01-28T08:17:22.357Z,131.60
2019-01-28T08:19:51.884Z,111.20
2019-01-28T08:22:21.686Z,83.37
2019-01-28T08:24:51.086Z,73.57
2019-01-28T08:27:20.900Z,71.23
2019-01-28T08:29:50.396Z,71.27
2019-01-28T08:32:20.029Z,219.50
2019-01-28T08:34:49.715Z,74.60
2019-01-28T08:37:19.301Z,63.93
2019-01-28T08:39:48.810Z,50.73
2019-01-28T08:42:18.726Z,57.50
2019-01-28T08:44:48.352Z,62.20
2019-01-28T08:47:17.922Z,66.97
2019-01-28T08:49:47.769Z,62.67
2019-01-28T08:52:17.431Z,84.40
2019-01-28T08:54:47.204Z,80.93
2019-01-28T08:57:16.972Z,63.40
2019-01-28T08:59:46.576Z,53.87
2019-01-28T09:02:15.980Z,49.27
2019-01-28T09:04:45.775Z,91.27
2019-01-28T09:07:15.726Z,75.60
2019-01-28T09:09:45.524Z,58.53
2019-01-28T09:12:15.094Z,52.10
2019-01-28T09:14:45.004Z,46.83
2019-01-28T09:17:14.491Z,54.43
2019-01-28T09:19:44.159Z,52.17
2019-01-28T09:22:13.747Z,53.13
2019-01-28T09:24:43.240Z,55.00
2019-01-28T09:27:12.809Z,51.37
2019-01-28T09:29:42.400Z,57.40
2019-01-28T09:32:11.956Z,52.83
2019-01-28T09:34:41.356Z,59.13
2019-01-28T09:37:14.243Z,49.93
2019-01-28T09:39:43.835Z,42.37
2019-01-28T09:42:13.393Z,45.37
2019-01-28T09:44:42.837Z,59.37
2019-01-28T09:47:12.282Z,52.70
2019-01-28T09:49:41.792Z,44.60
2019-01-28T09:52:12.631Z,44.73
2019-01-28T09:54:43.611Z,45.83
2019-01-28T09:57:13.212Z,45.13
2019-01-28T09:59:42.927Z,53.57
2019-01-28T10:02:12.791Z,65.50
2019-01-28T10:04:42.413Z,48.10
2019-01-28T10:07:13.048Z,47.80
2019-01-28T10:09:42.553Z,47.10
2019-01-28T10:12:12.141Z,43.20
2019-01-28T10:14:44.254Z,45.00
2019-01-28T10:17:14.462Z,49.00
2019-01-28T10:19:44.006Z,47.07
2019-01-28T10:22:13.807Z,47.70
2019-01-28T10:24:43.497Z,48.37
2019-01-28T10:27:12.928Z,54.57
2019-01-28T10:29:42.535Z,50.57
2019-01-28T10:32:13.805Z,50.87
2019-01-28T10:34:43.408Z,57.00
2019-01-28T10:37:13.038Z,50.37
2019-01-28T10:39:42.900Z,63.87
2019-01-28T10:42:12.505Z,64.57
2019-01-28T10:44:42.019Z,56.30
2019-01-28T10:47:11.860Z,56.50
2019-01-28T10:49:41.351Z,64.47
2019-01-28T10:52:11.255Z,74.47
2019-01-28T10:54:40.905Z,67.27
2019-01-28T10:57:10.709Z,49.57
2019-01-28T10:59:40.090Z,57.43
2019-01-28T11:02:10.530Z,51.50
2019-01-28T11:04:40.078Z,49.73
2019-01-28T11:07:09.568Z,120.87
2019-01-28T11:09:39.222Z,62.77
2019-01-28T11:12:08.833Z,54.53
2019-01-28T11:14:38.286Z,49.63
2019-01-28T11:17:08.184Z,57.30
2019-01-28T11:19:37.987Z,50.07
2019-01-28T11:22:07.374Z,53.77
2019-01-28T11:24:37.457Z,47.77
2019-01-28T11:27:06.964Z,55.43
2019-01-28T11:29:36.458Z,53.57
2019-01-28T11:32:06.115Z,48.80
2019-01-28T11:34:35.582Z,55.87
2019-01-28T11:37:05.400Z,53.57
2019-01-28T11:39:35.101Z,50.47
2019-01-28T11:42:04.846Z,50.17
2019-01-28T11:44:34.715Z,74.50
2019-01-28T11:47:04.184Z,66.20
2019-01-28T11:49:33.931Z,56.60
2019-01-28T11:52:03.369Z,110.50
2019-01-28T11:54:33.080Z,77.17
2019-01-28T11:57:02.681Z,62.03
2019-01-28T11:59:32.164Z,65.00
2019-01-28T12:02:01.771Z,54.40
2019-01-28T12:04:31.172Z,52.93
2019-01-28T12:07:00.930Z,55.93
2019-01-28T12:09:30.417Z,55.13
2019-01-28T12:12:00.145Z,54.90
2019-01-28T12:14:29.994Z,58.73
2019-01-28T12:16:59.517Z,61.70
2019-01-28T12:19:29.052Z,64.83
2019-01-28T12:21:59.002Z,71.20
2019-01-28T12:24:28.506Z,53.10
2019-01-28T12:26:58.118Z,51.03
2019-01-28T12:29:27.620Z,54.37
2019-01-28T12:31:57.185Z,53.70
2019-01-28T12:34:26.935Z,53.97
2019-01-28T12:36:56.423Z,48.47
2019-01-28T12:39:26.200Z,52.17
2019-01-28T12:41:55.653Z,52.53
2019-01-28T12:44:25.458Z,49.23
2019-01-28T12:46:54.946Z,50.47
2019-01-28T12:49:24.351Z,49.90
2019-01-28T12:51:53.979Z,88.87
2019-01-28T12:54:23.555Z,117.17
2019-01-28T12:56:53.002Z,69.10
2019-01-28T12:59:22.593Z,82.67
2019-01-28T13:01:52.115Z,73.83
2019-01-28T13:04:21.777Z,83.57
2019-01-28T13:06:51.436Z,87.53
2019-01-28T13:09:20.945Z,65.13
2019-01-28T13:11:50.783Z,69.17
2019-01-28T13:14:20.499Z,62.53
2019-01-28T13:16:49.913Z,64.87
2019-01-28T13:19:19.786Z,71.07
2019-01-28T13:21:49.525Z,63.70
2019-01-28T13:24:18.961Z,55.10
2019-01-28T13:26:48.379Z,54.60
2019-01-28T13:29:17.857Z,56.10
2019-01-28T13:31:47.531Z,53.20
2019-01-28T13:34:17.094Z,51.63
2019-01-28T13:36:47.073Z,52.17
2019-01-28T13:39:17.692Z,53.00
2019-01-28T13:41:47.312Z,51.17
2019-01-28T13:44:17.120Z,59.47
2019-01-28T13:46:46.838Z,56.70
2019-01-28T13:49:16.439Z,56.80
2019-01-28T13:51:45.940Z,55.27
2019-01-28T13:54:15.446Z,50.37
2019-01-28T13:56:44.979Z,57.60
2019-01-28T13:59:16.485Z,55.23
2019-01-28T14:01:46.081Z,50.30
2019-01-28T14:04:15.627Z,55.73
2019-01-28T14:06:45.128Z,55.07
2019-01-28T14:09:14.723Z,53.57
2019-01-28T14:11:44.207Z,63.23
2019-01-28T14:14:14.049Z,63.33
2019-01-28T14:16:43.662Z,62.50
2019-01-28T14:19:13.354Z,65.70
2019-01-28T14:21:43.197Z,55.57
2019-01-28T14:24:13.867Z,68.37
2019-01-28T14:26:43.652Z,65.27
2019-01-28T14:29:13.627Z,64.80
2019-01-28T14:31:43.337Z,67.73
2019-01-28T14:34:13.044Z,86.13
2019-01-28T14:36:42.452Z,96.00
2019-01-28T14:39:14.257Z,107.40
2019-01-28T14:41:43.891Z,79.30
2019-01-28T14:44:13.556Z,82.87
2019-01-28T14:46:43.327Z,86.60
2019-01-28T14:49:12.886Z,75.00
2019-01-28T14:51:43.033Z,78.13
2019-01-28T14:54:12.930Z,74.30
2019-01-28T14:56:42.899Z,72.43
2019-01-28T14:59:12.455Z,88.83
2019-01-28T15:01:42.230Z,73.27
2019-01-28T15:04:11.771Z,74.80
2019-01-28T15:06:41.746Z,68.13
2019-01-28T15:09:12.864Z,70.17
2019-01-28T15:11:42.374Z,71.33
2019-01-28T15:14:11.886Z,68.17
2019-01-28T15:16:41.673Z,72.97
2019-01-28T15:19:14.792Z,84.00
2019-01-28T15:21:44.305Z,141.70
2019-01-28T15:24:13.724Z,92.83
2019-01-28T15:26:43.256Z,88.93
2019-01-28T15:29:12.765Z,96.03
2019-01-28T15:31:42.454Z,130.03
2019-01-28T15:34:12.319Z,132.57
2019-01-28T15:36:41.829Z,195.53
2019-01-28T15:39:11.963Z,197.30
2019-01-28T15:41:41.772Z,218.47
2019-01-28T15:44:11.579Z,335.07
2019-01-28T15:46:41.313Z,168.90
2019-01-28T15:49:11.193Z,131.00
2019-01-28T15:51:40.756Z,128.77
2019-01-28T15:54:10.607Z,109.30
2019-01-28T15:56:40.370Z,102.57
2019-01-28T15:59:10.230Z,98.73
2019-01-28T16:01:39.969Z,101.37
2019-01-28T16:04:09.479Z,108.57
2019-01-28T16:06:39.004Z,217.97
2019-01-28T16:09:10.345Z,199.47
2019-01-28T16:11:39.939Z,191.70
2019-01-28T16:14:09.446Z,189.37
2019-01-28T16:16:39.154Z,154.33
2019-01-28T16:19:09.370Z,129.80
2019-01-28T16:21:39.309Z,118.33
2019-01-28T16:24:13.718Z,92.87
2019-01-28T16:26:43.243Z,207.53
2019-01-28T16:29:13.196Z,133.73
2019-01-28T16:31:43.155Z,98.90
2019-01-28T16:34:12.966Z,109.47
2019-01-28T16:36:44.458Z,94.33
2019-01-28T16:39:14.103Z,96.77
2019-01-28T16:41:44.226Z,87.20
2019-01-28T16:44:13.926Z,125.67
2019-01-28T16:46:43.839Z,117.90
2019-01-28T16:49:15.089Z,121.70
2019-01-28T16:51:46.908Z,128.47
2019-01-28T16:54:16.528Z,105.03
2019-01-28T16:56:46.330Z,80.03
2019-01-28T16:59:16.098Z,75.50
2019-01-28T17:01:48.397Z,144.83
2019-01-28T17:04:20.832Z,132.13
2019-01-28T17:06:50.322Z,123.23
2019-01-28T17:09:20.065Z,125.50
2019-01-28T17:11:49.867Z,111.57
2019-01-28T17:14:19.856Z,115.17
2019-01-28T17:16:49.807Z,120.10
2019-01-28T17:19:19.433Z,110.53
2019-01-28T17:21:48.947Z,134.93
2019-01-28T17:24:18.459Z,137.27
2019-01-28T17:26:50.603Z,116.83
2019-01-28T17:29:20.388Z,131.10
2019-01-28T17:31:49.956Z,177.97
2019-01-28T17:34:19.576Z,146.20
2019-01-28T17:36:49.379Z,102.63
2019-01-28T17:39:18.798Z,100.23
2019-01-28T17:41:48.329Z,102.93
2019-01-28T17:44:18.189Z,112.07
2019-01-28T17:46:47.797Z,150.27
2019-01-28T17:49:17.651Z,144.07
2019-01-28T17:51:47.518Z,138.47
2019-01-28T17:54:17.055Z,170.80
2019-01-28T17:56:46.994Z,120.63
2019-01-28T17:59:17.379Z,109.43
2019-01-28T18:01:46.883Z,115.67
2019-01-28T18:04:16.617Z,111.80
2019-01-28T18:06:46.170Z,100.20
2019-01-28T18:09:15.962Z,109.43
2019-01-28T18:11:45.840Z,105.60
2019-01-28T18:14:15.811Z,113.60
2019-01-28T18:16:45.620Z,111.87
2019-01-28T18:19:15.478Z,126.47
2019-01-28T18:21:45.277Z,132.83
2019-01-28T18:24:15.129Z,106.27
2019-01-28T18:26:44.982Z,99.63
2019-01-28T18:29:14.517Z,104.37
2019-01-28T18:31:44.410Z,108.93
2019-01-28T18:34:14.183Z,101.10
2019-01-28T18:36:44.026Z,92.13
2019-01-28T18:39:14.978Z,90.43
2019-01-28T18:41:44.701Z,142.93
2019-01-28T18:44:16.389Z,124.73
2019-01-28T18:46:46.141Z,106.23
2019-01-28T18:49:16.515Z,116.80
2019-01-28T18:51:46.055Z,126.60
2019-01-28T18:54:15.591Z,112.10
2019-01-28T18:56:45.434Z,108.23
2019-01-28T18:59:15.127Z,120.90
2019-01-28T19:01:44.667Z,124.23
2019-01-28T19:04:14.462Z,114.90
2019-01-28T19:07:09.371Z,89.17
2019-01-28T19:09:43.681Z,91.93
2019-01-28T19:12:30.686Z,83.83
2019-01-28T19:15:37.487Z,77.50
2019-01-28T19:18:17.331Z,98.83
2019-01-28T19:21:08.117Z,130.30
2019-01-28T19:23:37.100Z,139.30
2019-01-28T19:26:06.987Z,64.37
2019-01-28T19:28:39.922Z,67.27
2019-01-28T19:31:09.839Z,83.33
2019-01-28T19:33:40.842Z,69.00
2019-01-28T19:36:10.465Z,67.30
2019-01-28T19:38:40.271Z,77.47
2019-01-28T19:41:12.498Z,88.20
2019-01-28T19:43:42.408Z,75.07
2019-01-28T19:46:12.058Z,111.53
2019-01-28T19:48:41.860Z,139.27
2019-01-28T19:51:15.742Z,110.70
2019-01-28T19:53:42.914Z,108.17
2019-01-28T19:56:12.745Z,109.27
2019-01-28T19:58:43.683Z,100.57
2019-01-28T20:01:13.602Z,100.17
2019-01-28T20:03:43.396Z,98.30
2019-01-28T20:06:13.214Z,94.63
2019-01-28T20:08:44.855Z,93.97
2019-01-28T20:11:15.034Z,96.53
2019-01-28T20:13:44.582Z,93.17
2019-01-28T20:16:14.539Z,82.47
2019-01-28T20:18:44.094Z,110.57
2019-01-28T20:21:14.039Z,92.03
2019-01-28T20:23:43.914Z,94.00
2019-01-28T20:26:13.474Z,96.30
2019-01-28T20:28:43.045Z,94.00
2019-01-28T20:31:12.981Z,94.67
2019-01-28T20:33:42.747Z,91.17
2019-01-28T20:36:12.766Z,100.20
2019-01-28T20:38:42.572Z,96.87
2019-01-28T20:41:18.692Z,89.60
2019-01-28T20:43:57.419Z,110.60
2019-01-28T20:46:26.781Z,93.27
2019-01-28T20:48:56.321Z,84.80
2019-01-28T20:51:32.260Z,86.27
2019-01-28T20:53:57.665Z,92.17
2019-01-28T20:56:27.539Z,89.17
2019-01-28T20:58:57.116Z,83.93
2019-01-28T21:01:26.648Z,89.67
2019-01-28T21:03:56.430Z,82.93
2019-01-28T21:06:26.269Z,81.67
2019-01-28T21:08:55.799Z,94.73
2019-01-28T21:11:27.933Z,105.67
2019-01-28T21:13:57.414Z,111.23
2019-01-28T21:16:27.096Z,106.33
2019-01-28T21:18:56.895Z,114.80
2019-01-28T21:21:26.621Z,132.60
2019-01-28T21:23:56.127Z,101.87
2019-01-28T21:26:25.657Z,97.17
2019-01-28T21:28:55.151Z,95.17
2019-01-28T21:31:28.011Z,112.27
2019-01-28T21:33:57.521Z,114.80
2019-01-28T21:36:34.094Z,106.13
2019-01-28T21:39:05.286Z,99.80
2019-01-28T21:41:34.947Z,101.03
2019-01-28T21:44:04.845Z,96.87
2019-01-28T21:46:34.716Z,93.43
2019-01-28T21:49:04.645Z,114.37
2019-01-28T21:51:34.333Z,105.10
2019-01-28T21:54:04.457Z,97.20
2019-01-28T21:56:34.270Z,107.03
2019-01-28T21:59:03.884Z,108.00
2019-01-28T22:01:33.492Z,109.07
2019-01-28T22:04:03.449Z,106.73
2019-01-28T22:06:32.948Z,101.63
2019-01-28T22:09:02.718Z,99.97
2019-01-28T22:11:32.422Z,105.10
2019-01-28T22:14:02.025Z,98.27
2019-01-28T22:16:31.882Z,110.63
2019-01-28T22:19:01.763Z,106.33
2019-01-28T22:21:31.272Z,107.97
2019-01-28T22:24:01.162Z,111.30
2019-01-28T22:26:30.971Z,107.77
2019-01-28T22:29:01.304Z,113.93
2019-01-28T22:31:30.800Z,111.53
2019-01-28T22:34:00.676Z,106.13
2019-01-28T22:36:30.441Z,178.60
2019-01-28T22:39:00.646Z,174.53
2019-01-28T22:41:30.812Z,142.60
2019-01-28T22:44:00.595Z,115.47
2019-01-28T22:46:30.443Z,108.97
2019-01-28T22:49:00.053Z,110.77
2019-01-28T22:51:29.754Z,118.13
2019-01-28T22:53:59.264Z,107.90
2019-01-28T22:56:28.963Z,117.17
2019-01-28T22:58:58.473Z,117.10
2019-01-28T23:01:31.811Z,111.70
2019-01-28T23:04:01.644Z,108.83
2019-01-28T23:06:31.262Z,113.23
2019-01-28T23:09:01.166Z,114.07
2019-01-28T23:11:30.994Z,128.23
2019-01-28T23:14:00.919Z,136.50
2019-01-28T23:16:30.795Z,123.53
2019-01-28T23:19:00.549Z,103.53
2019-01-28T23:21:30.055Z,103.17
2019-01-28T23:23:59.576Z,105.67
2019-01-28T23:26:29.367Z,110.10
2019-01-28T23:28:58.879Z,130.93
2019-01-28T23:31:28.880Z,114.73
2019-01-28T23:33:58.484Z,113.83
2019-01-28T23:36:28.404Z,100.70
2019-01-28T23:38:58.112Z,112.43
2019-01-28T23:41:27.719Z,134.23
2019-01-28T23:43:57.407Z,128.90
2019-01-28T23:46:27.303Z,120.50
2019-01-28T23:48:57.036Z,145.53
2019-01-28T23:51:26.832Z,110.27
2019-01-28T23:53:56.536Z,132.40
2019-01-28T23:56:26.060Z,130.13
2019-01-28T23:58:55.988Z,134.40
